Archival Weather

Norman Y Mineta San Jose Intl

San Jose, California (KSJC)

Report from: Tuesday, February 13, 2024 8:53 AM PST
Current time: Friday, June 21, 2024 12:09 AM PDT

Current weather – Weather history – Daily summaries
Weather forecast

Temperature10.6°C (51.1°F)
Dew point7.2°C (45.0°F)
Winds 6 kts (3.1 m/s, 6.9 mph) South-Southeast (150°)
Visibility10 mi. (16.1 km)
Clouds Few clouds 1,400 ft. (427 m)
Ceiling: Broken clouds 3,000 ft. (914 m)
Broken clouds 9,000 ft. (2,743 m)
Altimeter30.06 in.Hg (1018 mB)
Relative humidity79 %
Density altitude-533 ft. (-163 m)
Sea-level pressure101.8 kPa (1018 mB, 30.06 in.Hg)
Remarks Corrected report
Automated weather observing station with precipitation discriminator
Flight conditions Visual Meteorological Conditions
Raw dataKSJC 131653Z COR 15006KT 10SM FEW014 BKN030 BKN090 11/07 A3006 RMK AO2 SLP178 T01060072
An error has occurred. This application may no longer respond until reloaded. Reload 🗙